Time;durP1;ratioP1;P1;durP2;ratioP2;P2;SDS_P1;SDS_P2;PMS_P1;PMS_P2;Temp;Humidity;BMP_temperature;BMP_pressure;BME280_temperature;BME280_humidity;BME280_pressure;Samples;Min_cycle;Max_cycle;Signal;HPM_P1;HPM_P2
2020/12/26 00:00:07;;;;;;;12.23;5.45;;;;;;;;;;5072209;28;20312;-77
2020/12/26 00:02:33;;;;;;;8.68;5.38;;;;;;;;;;5068795;28;20239;-77
2020/12/26 00:05:00;;;;;;;8.05;6.15;;;;;;;;;;5070779;28;20840;-78
2020/12/26 00:07:28;;;;;;;8.90;5.72;;;;;;;;;;5071863;28;20198;-78
2020/12/26 00:09:55;;;;;;;8.95;5.28;;;;;;;;;;5071925;28;20627;-78
2020/12/26 00:12:21;;;;;;;10.23;6.35;;;;;;;;;;5071585;28;20765;-78
2020/12/26 00:14:48;;;;;;;9.98;6.38;;;;;;;;;;5073702;28;20313;-78
2020/12/26 00:17:16;;;;;;;10.05;6.57;;;;;;;;;;5074034;28;20190;-78
2020/12/26 00:19:43;;;;;;;9.05;5.43;;;;;;;;;;5072785;28;20224;-78
2020/12/26 00:22:10;;;;;;;9.30;7.00;;;;;;;;;;5072134;28;20186;-78
2020/12/26 00:24:38;;;;;;;11.85;8.07;;;;;;;;;;5068128;28;20313;-77
2020/12/26 00:27:05;;;;;;;11.00;7.60;;;;;;;;;;5070613;28;20674;-76
2020/12/26 00:29:31;;;;;;;10.60;7.22;;;;;;;;;;5071305;28;20686;-75
2020/12/26 00:31:58;;;;;;;10.90;6.20;;;;;;;;;;5071605;28;20290;-76
2020/12/26 00:34:25;;;;;;;10.07;7.85;;;;;;;;;;5071365;28;20214;-76
2020/12/26 00:36:52;;;;;;;15.15;8.30;;;;;;;;;;5073686;28;20292;-77
2020/12/26 00:39:19;;;;;;;13.25;8.80;;;;;;;;;;5073443;28;20630;-78
2020/12/26 00:41:47;;;;;;;10.25;8.20;;;;;;;;;;5073482;28;20643;-76
2020/12/26 00:44:14;;;;;;;10.93;8.73;;;;;;;;;;5071416;28;20222;-77
2020/12/26 00:46:41;;;;;;;10.52;8.10;;;;;;;;;;5068013;28;20193;-77
2020/12/26 00:49:07;;;;;;;12.45;7.57;;;;;;;;;;5069999;28;20306;-77
2020/12/26 00:51:34;;;;;;;9.38;7.20;;;;;;;;;;5071090;28;20232;-76
2020/12/26 00:54:01;;;;;;;10.20;7.95;;;;;;;;;;5071128;28;20216;-77
2020/12/26 00:56:28;;;;;;;10.98;8.30;;;;;;;;;;5070922;28;20193;-77
2020/12/26 00:58:56;;;;;;;14.30;8.63;;;;;;;;;;5073411;28;20230;-76
2020/12/26 01:01:22;;;;;;;11.27;8.00;;;;;;;;;;5073158;28;20281;-77
2020/12/26 01:03:49;;;;;;;17.83;8.63;;;;;;;;;;5073159;28;20218;-79
2020/12/26 01:06:16;;;;;;;11.05;8.30;;;;;;;;;;5071229;28;20191;-77
2020/12/26 01:08:43;;;;;;;9.07;7.95;;;;;;;;;;5067352;28;20209;-76
2020/12/26 01:11:10;;;;;;;13.98;9.20;;;;;;;;;;5069513;28;20547;-77
2020/12/26 01:13:37;;;;;;;16.00;9.95;;;;;;;;;;5070525;28;20305;-78
2020/12/26 01:16:05;;;;;;;17.00;11.70;;;;;;;;;;5070643;28;20247;-76
2020/12/26 01:18:31;;;;;;;14.85;10.55;;;;;;;;;;5070417;28;20229;-76
2020/12/26 01:21:00;;;;;;;16.92;11.23;;;;;;;;;;5072855;28;20567;-78
2020/12/26 01:23:27;;;;;;;19.42;11.48;;;;;;;;;;5072440;28;20210;-77
2020/12/26 01:25:54;;;;;;;15.90;10.75;;;;;;;;;;5072781;28;20228;-76
2020/12/26 01:28:21;;;;;;;11.05;9.10;;;;;;;;;;5070997;28;20208;-77
2020/12/26 01:30:48;;;;;;;12.68;9.15;;;;;;;;;;5066894;28;20604;-77
2020/12/26 01:33:16;;;;;;;11.85;10.30;;;;;;;;;;5069175;28;20260;-77
2020/12/26 01:35:43;;;;;;;16.95;12.32;;;;;;;;;;5069101;28;20205;-77
2020/12/26 01:38:09;;;;;;;16.98;10.95;;;;;;;;;;5069948;28;20285;-77
2020/12/26 01:40:37;;;;;;;18.27;11.73;;;;;;;;;;5070274;28;20226;-76
2020/12/26 01:43:04;;;;;;;17.40;11.98;;;;;;;;;;5072025;28;20236;-77
2020/12/26 01:45:31;;;;;;;16.45;13.18;;;;;;;;;;5072373;28;20204;-77
2020/12/26 01:47:58;;;;;;;17.85;12.50;;;;;;;;;;5071318;28;20228;-77
2020/12/26 01:50:26;;;;;;;24.85;13.65;;;;;;;;;;5070348;28;20285;-77
2020/12/26 01:52:53;;;;;;;15.15;12.25;;;;;;;;;;5065925;28;20226;-78
2020/12/26 01:55:21;;;;;;;15.23;12.35;;;;;;;;;;5069082;28;20278;-77
2020/12/26 01:57:50;;;;;;;20.83;12.50;;;;;;;;;;5070065;28;20194;-78
2020/12/26 02:00:17;;;;;;;17.20;11.57;;;;;;;;;;5069494;28;20218;-77
2020/12/26 02:02:44;;;;;;;16.70;12.57;;;;;;;;;;5069551;28;20289;-76
2020/12/26 02:05:11;;;;;;;14.57;10.88;;;;;;;;;;5071729;28;20195;-76
2020/12/26 02:07:39;;;;;;;19.70;12.27;;;;;;;;;;5072038;28;20198;-75
2020/12/26 02:10:05;;;;;;;18.05;11.73;;;;;;;;;;5071799;28;20197;-75
2020/12/26 02:12:32;;;;;;;16.13;12.70;;;;;;;;;;5069872;28;20227;-76
2020/12/26 02:14:59;;;;;;;17.30;12.18;;;;;;;;;;5065778;28;20206;-78
2020/12/26 02:17:26;;;;;;;17.05;11.20;;;;;;;;;;5068436;28;20232;-78
2020/12/26 02:19:53;;;;;;;21.40;13.55;;;;;;;;;;5067471;28;20214;-76
2020/12/26 02:22:19;;;;;;;13.70;11.38;;;;;;;;;;5069331;28;20284;-77
2020/12/26 02:24:47;;;;;;;16.17;11.32;;;;;;;;;;5069544;28;20270;-78
2020/12/26 02:27:14;;;;;;;13.85;11.30;;;;;;;;;;5071333;28;20191;-77
2020/12/26 02:29:41;;;;;;;15.90;11.90;;;;;;;;;;5071547;28;20191;-77
2020/12/26 02:32:08;;;;;;;19.13;11.57;;;;;;;;;;5071419;28;20247;-76
2020/12/26 02:34:34;;;;;;;13.90;10.93;;;;;;;;;;5069259;28;20218;-77
2020/12/26 02:37:02;;;;;;;14.65;10.70;;;;;;;;;;5065490;28;20224;-77
2020/12/26 02:39:29;;;;;;;15.70;10.38;;;;;;;;;;5068227;28;20752;-76
2020/12/26 02:41:56;;;;;;;15.23;12.32;;;;;;;;;;5068479;28;20200;-78
2020/12/26 02:44:23;;;;;;;19.50;11.60;;;;;;;;;;5069097;28;20214;-78
2020/12/26 02:46:51;;;;;;;18.08;10.40;;;;;;;;;;5068026;28;20190;-78
2020/12/26 02:49:18;;;;;;;15.55;10.10;;;;;;;;;;5069567;28;20226;-76
2020/12/26 02:51:45;;;;;;;14.82;11.30;;;;;;;;;;5070863;28;20304;-77
2020/12/26 02:54:12;;;;;;;17.90;11.07;;;;;;;;;;5071157;28;20218;-79
2020/12/26 02:56:40;;;;;;;13.38;10.80;;;;;;;;;;5069156;28;20279;-77
2020/12/26 02:59:08;;;;;;;15.45;11.00;;;;;;;;;;5065271;28;20237;-77
2020/12/26 03:01:35;;;;;;;11.35;9.75;;;;;;;;;;5066774;28;20277;-77
2020/12/26 03:04:02;;;;;;;16.70;10.80;;;;;;;;;;5068862;28;20729;-78
2020/12/26 03:06:29;;;;;;;12.65;10.57;;;;;;;;;;5069375;28;20205;-77
2020/12/26 03:08:56;;;;;;;14.38;11.55;;;;;;;;;;5069489;28;20284;-77
2020/12/26 03:11:23;;;;;;;22.42;11.07;;;;;;;;;;5071190;28;20281;-76
2020/12/26 03:13:50;;;;;;;15.63;11.10;;;;;;;;;;5070983;28;20225;-77
2020/12/26 03:16:18;;;;;;;24.48;12.18;;;;;;;;;;5071279;28;20685;-76
2020/12/26 03:18:44;;;;;;;14.45;10.70;;;;;;;;;;5069058;28;20201;-76
2020/12/26 03:21:11;;;;;;;15.00;11.73;;;;;;;;;;5064247;28;20194;-77
2020/12/26 03:23:38;;;;;;;14.65;12.07;;;;;;;;;;5067881;28;20726;-76
2020/12/26 03:26:05;;;;;;;16.42;11.73;;;;;;;;;;5068793;28;20316;-76
2020/12/26 03:28:32;;;;;;;16.48;12.25;;;;;;;;;;5068806;28;20930;-78
2020/12/26 03:30:59;;;;;;;16.15;10.77;;;;;;;;;;5068867;28;20640;-77
2020/12/26 03:33:26;;;;;;;18.48;10.55;;;;;;;;;;5071297;28;20220;-76
2020/12/26 03:35:53;;;;;;;14.35;10.32;;;;;;;;;;5071353;28;20274;-75
2020/12/26 03:38:20;;;;;;;16.35;10.75;;;;;;;;;;5071309;28;20282;-77
2020/12/26 03:40:47;;;;;;;12.65;10.02;;;;;;;;;;5068823;28;20371;-77
2020/12/26 03:43:14;;;;;;;17.52;10.52;;;;;;;;;;5065301;28;20203;-76
2020/12/26 03:45:41;;;;;;;11.88;9.75;;;;;;;;;;5067924;28;20222;-77
2020/12/26 03:48:07;;;;;;;15.50;10.43;;;;;;;;;;5068927;28;20201;-76
2020/12/26 03:50:35;;;;;;;16.02;9.90;;;;;;;;;;5068822;28;20186;-76
2020/12/26 03:53:04;;;;;;;15.98;9.68;;;;;;;;;;5068862;28;20251;-77
2020/12/26 03:55:31;;;;;;;16.98;11.05;;;;;;;;;;5074518;28;20205;-76
2020/12/26 03:57:58;;;;;;;18.45;10.10;;;;;;;;;;5074433;28;20285;-77
2020/12/26 04:00:25;;;;;;;18.48;9.40;;;;;;;;;;5074374;28;20263;-76
2020/12/26 04:02:52;;;;;;;12.77;9.57;;;;;;;;;;5072191;28;21424;-75
2020/12/26 04:05:18;;;;;;;17.08;9.90;;;;;;;;;;5068639;28;20643;-76
2020/12/26 04:07:46;;;;;;;13.52;9.43;;;;;;;;;;5071162;28;20597;-76
2020/12/26 04:10:13;;;;;;;17.35;9.07;;;;;;;;;;5071909;28;20282;-77
2020/12/26 04:12:40;;;;;;;12.77;8.88;;;;;;;;;;5071969;28;20194;-77
2020/12/26 04:15:07;;;;;;;12.60;9.80;;;;;;;;;;5072050;28;20220;-76
2020/12/26 04:17:33;;;;;;;12.98;8.55;;;;;;;;;;5074094;28;20721;-77
2020/12/26 04:20:00;;;;;;;14.10;9.30;;;;;;;;;;5074262;28;20236;-77
2020/12/26 04:22:27;;;;;;;13.27;9.90;;;;;;;;;;5072761;28;20225;-77
2020/12/26 04:24:55;;;;;;;15.80;10.65;;;;;;;;;;5071739;28;20293;-77
2020/12/26 04:27:22;;;;;;;11.68;9.35;;;;;;;;;;5068366;28;20193;-77
2020/12/26 04:29:49;;;;;;;11.70;9.45;;;;;;;;;;5070960;28;20240;-77
2020/12/26 04:32:15;;;;;;;15.45;10.35;;;;;;;;;;5071296;28;20198;-77
2020/12/26 04:34:45;;;;;;;14.60;10.52;;;;;;;;;;5071753;28;20756;-77
2020/12/26 04:37:12;;;;;;;12.07;9.05;;;;;;;;;;5071925;28;20650;-76
2020/12/26 04:39:39;;;;;;;12.18;9.88;;;;;;;;;;5073827;28;20232;-77
2020/12/26 04:42:07;;;;;;;17.48;9.75;;;;;;;;;;5073800;28;20351;-76
2020/12/26 04:44:35;;;;;;;13.82;10.00;;;;;;;;;;5073505;28;20224;-76
2020/12/26 04:47:06;;;;;;;15.85;11.43;;;;;;;;;;5071038;28;20247;-76
2020/12/26 04:49:35;;;;;;;12.88;9.88;;;;;;;;;;5067481;28;20904;-76
2020/12/26 04:52:04;;;;;;;13.80;10.23;;;;;;;;;;5070256;28;20747;-77
2020/12/26 04:54:34;;;;;;;14.25;9.80;;;;;;;;;;5070814;28;20743;-77
2020/12/26 04:57:01;;;;;;;13.63;10.32;;;;;;;;;;5069975;28;20198;-78
2020/12/26 04:59:29;;;;;;;17.08;11.02;;;;;;;;;;5071390;28;20286;-78
2020/12/26 05:01:56;;;;;;;13.38;10.63;;;;;;;;;;5073149;28;20285;-78
2020/12/26 05:04:23;;;;;;;21.98;11.82;;;;;;;;;;5072556;28;20220;-80
2020/12/26 05:06:50;;;;;;;14.40;10.77;;;;;;;;;;5073149;28;20240;-83
2020/12/26 05:09:17;;;;;;;15.77;10.40;;;;;;;;;;5070082;28;20194;-80
2020/12/26 05:11:52;;;;;;;14.50;10.35;;;;;;;;;;5067424;28;20190;-82
2020/12/26 05:14:18;;;;;;;13.60;9.90;;;;;;;;;;5069991;28;20218;-80
2020/12/26 05:16:46;;;;;;;17.77;11.07;;;;;;;;;;5069082;28;20197;-81
2020/12/26 05:19:13;;;;;;;19.25;10.88;;;;;;;;;;5070154;28;20243;-80
2020/12/26 05:21:40;;;;;;;16.60;10.38;;;;;;;;;;5070995;28;20234;-85
2020/12/26 05:24:07;;;;;;;16.25;12.13;;;;;;;;;;5072857;28;20243;-80
2020/12/26 05:26:42;;;;;;;14.40;11.80;;;;;;;;;;5072720;28;20251;-79
2020/12/26 05:29:09;;;;;;;21.63;13.63;;;;;;;;;;5072607;28;20263;-79
2020/12/26 05:31:53;;;;;;;20.23;13.23;;;;;;;;;;5067830;28;20187;-82
2020/12/26 05:34:21;;;;;;;19.63;14.32;;;;;;;;;;5066476;28;20293;-80
2020/12/26 05:36:47;;;;;;;19.38;12.75;;;;;;;;;;5070074;28;20285;-81
2020/12/26 05:39:14;;;;;;;19.92;15.07;;;;;;;;;;5069717;28;20317;-81
2020/12/26 05:41:43;;;;;;;26.75;17.38;;;;;;;;;;5070170;28;20274;-82
2020/12/26 05:44:11;;;;;;;21.15;16.20;;;;;;;;;;5070513;28;20218;-83
2020/12/26 05:46:37;;;;;;;24.63;16.98;;;;;;;;;;5071053;28;20289;-79
2020/12/26 05:49:19;;;;;;;19.00;14.77;;;;;;;;;;5072157;28;20204;-80
2020/12/26 05:51:47;;;;;;;20.73;15.15;;;;;;;;;;5071050;28;20312;-81
2020/12/26 05:54:16;;;;;;;22.25;14.65;;;;;;;;;;5067153;28;20286;-81
2020/12/26 05:56:43;;;;;;;21.58;15.57;;;;;;;;;;5066914;28;20204;-84
2020/12/26 05:59:23;;;;;;;21.80;16.67;;;;;;;;;;5069734;28;20194;-78
2020/12/26 06:01:50;;;;;;;18.88;14.98;;;;;;;;;;5064582;28;20186;-77
2020/12/26 06:04:20;;;;;;;22.05;16.05;;;;;;;;;;5060461;28;20617;-77
2020/12/26 06:06:51;;;;;;;19.88;14.15;;;;;;;;;;5055864;28;20224;-76
2020/12/26 06:09:19;;;;;;;20.88;14.85;;;;;;;;;;5065535;28;20200;-80
2020/12/26 06:11:47;;;;;;;19.27;15.18;;;;;;;;;;5069115;28;20226;-78
2020/12/26 06:14:17;;;;;;;19.48;14.45;;;;;;;;;;5069406;28;20244;-78
2020/12/26 06:16:47;;;;;;;22.35;14.55;;;;;;;;;;5067790;28;20190;-78
2020/12/26 06:19:16;;;;;;;24.40;14.18;;;;;;;;;;5070189;28;20226;-78
2020/12/26 06:21:43;;;;;;;20.23;14.73;;;;;;;;;;5055806;28;20206;-78
2020/12/26 06:24:12;;;;;;;16.75;12.93;;;;;;;;;;5051294;28;20279;-78
2020/12/26 06:26:45;;;;;;;19.13;14.07;;;;;;;;;;5051567;28;20678;-77
2020/12/26 06:29:14;;;;;;;17.38;12.85;;;;;;;;;;5060128;28;20277;-78
2020/12/26 06:31:41;;;;;;;16.25;12.50;;;;;;;;;;5066455;28;20194;-78
2020/12/26 06:34:10;;;;;;;17.33;13.35;;;;;;;;;;5068462;28;20503;-79
2020/12/26 06:36:37;;;;;;;18.83;13.57;;;;;;;;;;5069089;28;20202;-78
2020/12/26 06:39:26;;;;;;;20.05;16.13;;;;;;;;;;5067973;28;20465;-84
2020/12/26 06:42:07;;;;;;;16.85;13.75;;;;;;;;;;5069497;28;20206;-79
2020/12/26 06:44:36;;;;;;;16.20;13.27;;;;;;;;;;5049575;28;20221;-77
2020/12/26 06:47:02;;;;;;;23.27;13.60;;;;;;;;;;5054265;28;20236;-78
2020/12/26 06:49:29;;;;;;;21.48;13.00;;;;;;;;;;5067736;28;20200;-78
2020/12/26 06:51:57;;;;;;;24.85;15.40;;;;;;;;;;5066145;28;20226;-77
2020/12/26 06:54:38;;;;;;;14.65;12.15;;;;;;;;;;5065336;28;20738;-78
2020/12/26 06:57:06;;;;;;;20.42;13.07;;;;;;;;;;5067697;28;20193;-76
2020/12/26 06:59:33;;;;;;;20.05;13.88;;;;;;;;;;5068831;28;20595;-78
2020/12/26 07:02:04;;;;;;;21.42;14.00;;;;;;;;;;5064399;28;20276;-78
2020/12/26 07:04:36;;;;;;;16.63;11.65;;;;;;;;;;5063673;28;20223;-79
2020/12/26 07:07:03;;;;;;;17.40;13.40;;;;;;;;;;5051192;28;20248;-78
2020/12/26 07:09:46;;;;;;;14.93;11.77;;;;;;;;;;5050943;28;20290;-79
2020/12/26 07:12:14;;;;;;;20.45;14.15;;;;;;;;;;5050926;28;20672;-78
2020/12/26 07:14:42;;;;;;;13.43;11.10;;;;;;;;;;5056628;28;21811;-77
2020/12/26 07:17:23;;;;;;;12.60;10.80;;;;;;;;;;5067728;28;20277;-78
2020/12/26 07:19:52;;;;;;;14.32;11.38;;;;;;;;;;5067487;28;20263;-78
2020/12/26 07:22:20;;;;;;;15.63;10.88;;;;;;;;;;5068909;28;20191;-79
2020/12/26 07:24:48;;;;;;;14.07;9.82;;;;;;;;;;5050240;28;20225;-77
2020/12/26 07:27:17;;;;;;;14.00;11.75;;;;;;;;;;5062857;28;20190;-77
2020/12/26 07:29:53;;;;;;;15.15;10.43;;;;;;;;;;5068761;28;20259;-78
2020/12/26 07:32:34;;;;;;;13.25;10.38;;;;;;;;;;5072642;28;20194;-79
2020/12/26 07:35:01;;;;;;;14.02;10.05;;;;;;;;;;5072568;28;20550;-78
2020/12/26 07:37:28;;;;;;;13.50;9.98;;;;;;;;;;5071691;28;20193;-77
2020/12/26 07:39:55;;;;;;;12.88;10.43;;;;;;;;;;5063136;28;20763;-79
2020/12/26 07:42:23;;;;;;;13.70;10.38;;;;;;;;;;5068541;28;20655;-78
2020/12/26 07:44:50;;;;;;;13.75;10.20;;;;;;;;;;5071667;28;20593;-77
2020/12/26 07:47:17;;;;;;;13.23;9.55;;;;;;;;;;5072681;28;20216;-77
2020/12/26 07:49:44;;;;;;;16.38;9.95;;;;;;;;;;5071586;28;20283;-77
2020/12/26 07:52:11;;;;;;;12.60;10.00;;;;;;;;;;5071383;28;20225;-78
2020/12/26 07:54:37;;;;;;;10.65;7.95;;;;;;;;;;5073977;28;20216;-77
2020/12/26 07:57:04;;;;;;;11.68;9.63;;;;;;;;;;5074334;28;20194;-77
2020/12/26 07:59:32;;;;;;;12.80;8.85;;;;;;;;;;5074066;28;20425;-77
2020/12/26 08:01:59;;;;;;;11.43;9.45;;;;;;;;;;5071060;28;20204;-79
2020/12/26 08:04:25;;;;;;;16.88;8.23;;;;;;;;;;5068347;28;20232;-79
2020/12/26 08:06:52;;;;;;;13.10;8.60;;;;;;;;;;5051355;28;20289;-77
2020/12/26 08:09:19;;;;;;;12.27;9.60;;;;;;;;;;5052475;28;20290;-79
2020/12/26 08:11:46;;;;;;;10.45;8.10;;;;;;;;;;5052185;28;20202;-77
2020/12/26 08:14:13;;;;;;;10.00;7.72;;;;;;;;;;5052664;28;20219;-80
2020/12/26 08:16:41;;;;;;;11.23;8.45;;;;;;;;;;5054178;28;20614;-79
2020/12/26 08:19:08;;;;;;;9.75;8.35;;;;;;;;;;5053980;28;20622;-78
2020/12/26 08:21:35;;;;;;;10.32;7.53;;;;;;;;;;5053561;28;20286;-77
2020/12/26 08:24:02;;;;;;;12.63;7.90;;;;;;;;;;5058136;28;20303;-78
2020/12/26 08:26:30;;;;;;;9.68;8.07;;;;;;;;;;5068067;28;20199;-78
2020/12/26 08:28:59;;;;;;;10.38;6.93;;;;;;;;;;5070936;28;20197;-78
2020/12/26 08:31:26;;;;;;;7.22;6.45;;;;;;;;;;5068565;28;20870;-80
2020/12/26 08:33:57;;;;;;;8.25;6.50;;;;;;;;;;5051769;28;20284;-77
2020/12/26 08:36:28;;;;;;;8.60;6.75;;;;;;;;;;5052397;28;20205;-76
2020/12/26 08:38:57;;;;;;;7.22;5.60;;;;;;;;;;5051743;28;20191;-78
2020/12/26 08:41:24;;;;;;;7.88;5.75;;;;;;;;;;5053238;28;20222;-79
2020/12/26 08:43:51;;;;;;;8.45;6.10;;;;;;;;;;5053382;28;20280;-85
2020/12/26 08:46:18;;;;;;;9.10;6.18;;;;;;;;;;5054693;28;20563;-76
2020/12/26 08:48:45;;;;;;;7.00;6.18;;;;;;;;;;5067917;28;20198;-77
2020/12/26 08:51:18;;;;;;;7.90;5.85;;;;;;;;;;5068487;28;20257;-77
2020/12/26 08:53:45;;;;;;;7.53;5.70;;;;;;;;;;5066057;28;20217;-79
2020/12/26 08:56:13;;;;;;;7.97;5.13;;;;;;;;;;5071781;28;20387;-77
2020/12/26 08:58:40;;;;;;;5.22;4.60;;;;;;;;;;5066227;28;20258;-77
2020/12/26 09:01:07;;;;;;;9.13;5.35;;;;;;;;;;5053049;28;20229;-76
2020/12/26 09:03:36;;;;;;;6.18;4.88;;;;;;;;;;5053086;28;20215;-77
2020/12/26 09:06:04;;;;;;;7.60;4.80;;;;;;;;;;5053078;28;20289;-77
2020/12/26 09:08:32;;;;;;;6.03;5.15;;;;;;;;;;5055973;28;20271;-76
2020/12/26 09:11:00;;;;;;;6.50;5.78;;;;;;;;;;5065926;28;20194;-77
2020/12/26 09:13:32;;;;;;;7.93;5.72;;;;;;;;;;5068413;28;20565;-77
2020/12/26 09:16:01;;;;;;;8.73;6.13;;;;;;;;;;5070805;28;20247;-77
2020/12/26 09:18:28;;;;;;;7.00;6.30;;;;;;;;;;5067246;28;20189;-77
2020/12/26 09:20:55;;;;;;;6.95;5.45;;;;;;;;;;5069235;28;20713;-76
2020/12/26 09:23:22;;;;;;;7.68;4.75;;;;;;;;;;5072795;28;20375;-76
2020/12/26 09:25:51;;;;;;;5.82;4.70;;;;;;;;;;5071429;28;20201;-77
2020/12/26 09:28:17;;;;;;;4.00;3.60;;;;;;;;;;5067035;28;20556;-77
2020/12/26 09:30:45;;;;;;;5.65;4.85;;;;;;;;;;5067741;28;20707;-75
2020/12/26 09:33:12;;;;;;;9.02;5.28;;;;;;;;;;5069843;28;20301;-77
2020/12/26 09:35:39;;;;;;;5.47;4.30;;;;;;;;;;5070525;28;20248;-76
2020/12/26 09:38:06;;;;;;;5.93;5.18;;;;;;;;;;5070414;28;20194;-76
2020/12/26 09:40:33;;;;;;;7.15;3.92;;;;;;;;;;5072501;28;20222;-77
2020/12/26 09:43:01;;;;;;;7.05;4.53;;;;;;;;;;5072297;28;20218;-77
2020/12/26 09:45:29;;;;;;;6.60;4.50;;;;;;;;;;5072120;28;20198;-76
2020/12/26 09:47:57;;;;;;;4.20;3.80;;;;;;;;;;5070938;28;20204;-77
2020/12/26 09:50:24;;;;;;;4.72;3.78;;;;;;;;;;5065207;28;20652;-77
2020/12/26 09:52:51;;;;;;;4.75;3.90;;;;;;;;;;5068343;28;20221;-78
2020/12/26 09:55:18;;;;;;;8.68;4.60;;;;;;;;;;5065190;28;20190;-77
2020/12/26 09:57:44;;;;;;;4.30;3.70;;;;;;;;;;5069954;28;20277;-79
2020/12/26 10:00:12;;;;;;;6.15;4.60;;;;;;;;;;5069404;28;20308;-76
2020/12/26 10:02:39;;;;;;;8.13;4.65;;;;;;;;;;5072094;28;20205;-76
2020/12/26 10:05:07;;;;;;;10.57;6.55;;;;;;;;;;5072133;28;20416;-77
2020/12/26 10:07:34;;;;;;;7.82;4.95;;;;;;;;;;5071969;28;20198;-81
2020/12/26 10:10:01;;;;;;;7.57;4.97;;;;;;;;;;5070624;28;20186;-78
2020/12/26 10:12:28;;;;;;;7.90;5.03;;;;;;;;;;5065952;28;20190;-78
2020/12/26 10:14:54;;;;;;;7.93;4.38;;;;;;;;;;5068107;28;20225;-79
2020/12/26 10:17:22;;;;;;;6.75;4.00;;;;;;;;;;5065187;28;20236;-78
2020/12/26 10:19:49;;;;;;;6.75;4.35;;;;;;;;;;5049750;28;20215;-78
2020/12/26 10:22:16;;;;;;;6.13;4.95;;;;;;;;;;5068158;28;20218;-78
2020/12/26 10:24:43;;;;;;;6.70;3.92;;;;;;;;;;5056222;28;20257;-79
2020/12/26 10:27:10;;;;;;;8.32;4.03;;;;;;;;;;5055507;28;20194;-77
2020/12/26 10:29:36;;;;;;;6.82;3.67;;;;;;;;;;5052856;28;20237;-78
2020/12/26 10:32:04;;;;;;;7.22;3.65;;;;;;;;;;5053869;28;20672;-80
2020/12/26 10:34:32;;;;;;;5.45;3.92;;;;;;;;;;5062281;28;20214;-77
2020/12/26 10:36:59;;;;;;;7.20;3.78;;;;;;;;;;5067837;28;20535;-78
2020/12/26 10:39:25;;;;;;;5.80;3.70;;;;;;;;;;5069226;28;20200;-80
2020/12/26 10:41:52;;;;;;;6.68;4.15;;;;;;;;;;5049120;28;20688;-77
2020/12/26 10:44:19;;;;;;;4.75;3.05;;;;;;;;;;5049485;28;20215;-78
2020/12/26 10:46:46;;;;;;;4.50;3.55;;;;;;;;;;5050550;28;20193;-77
2020/12/26 10:49:13;;;;;;;4.78;2.92;;;;;;;;;;5050870;28;20198;-78
2020/12/26 10:51:40;;;;;;;6.28;3.45;;;;;;;;;;5050531;28;20294;-79
2020/12/26 10:54:08;;;;;;;10.07;6.43;;;;;;;;;;5051314;28;20218;-80
2020/12/26 10:56:35;;;;;;;5.65;3.78;;;;;;;;;;5064203;28;20243;-78
2020/12/26 10:59:04;;;;;;;4.75;3.50;;;;;;;;;;5066459;28;20187;-79
2020/12/26 11:01:31;;;;;;;4.85;2.80;;;;;;;;;;5058242;28;20245;-79
2020/12/26 11:03:58;;;;;;;3.75;2.55;;;;;;;;;;5057165;28;20696;-79
2020/12/26 11:06:24;;;;;;;4.68;3.38;;;;;;;;;;5051502;28;20199;-78
2020/12/26 11:08:52;;;;;;;7.63;2.88;;;;;;;;;;5065233;28;20658;-80
2020/12/26 11:11:19;;;;;;;5.63;2.10;;;;;;;;;;5052457;28;20641;-78
2020/12/26 11:13:46;;;;;;;3.60;2.40;;;;;;;;;;5051113;28;20217;-80
2020/12/26 11:16:13;;;;;;;4.65;2.15;;;;;;;;;;5063982;28;20561;-79
2020/12/26 11:18:40;;;;;;;3.53;2.28;;;;;;;;;;5065051;28;20187;-78
2020/12/26 11:21:07;;;;;;;3.78;1.90;;;;;;;;;;5066312;28;20218;-79
2020/12/26 11:23:33;;;;;;;2.20;2.00;;;;;;;;;;5068831;28;20232;-80
2020/12/26 11:26:01;;;;;;;1.83;1.70;;;;;;;;;;5069077;28;20198;-79
2020/12/26 11:28:28;;;;;;;5.20;2.10;;;;;;;;;;5069146;28;20251;-78
2020/12/26 11:30:55;;;;;;;3.60;1.85;;;;;;;;;;5070374;28;20205;-77
2020/12/26 11:33:22;;;;;;;2.30;1.83;;;;;;;;;;5071129;28;20214;-79
2020/12/26 11:35:49;;;;;;;5.05;2.40;;;;;;;;;;5070812;28;20205;-79
2020/12/26 11:38:16;;;;;;;3.72;2.20;;;;;;;;;;5070874;28;20311;-77
2020/12/26 11:40:43;;;;;;;3.63;2.22;;;;;;;;;;5065799;28;20232;-78
2020/12/26 11:43:10;;;;;;;3.00;2.40;;;;;;;;;;5066325;28;20718;-77
2020/12/26 11:45:37;;;;;;;3.28;1.90;;;;;;;;;;5068751;28;20197;-80
2020/12/26 11:48:04;;;;;;;4.10;2.15;;;;;;;;;;5068708;28;20285;-77
2020/12/26 11:50:30;;;;;;;4.30;3.20;;;;;;;;;;5068847;28;20508;-80
2020/12/26 11:52:57;;;;;;;5.13;2.13;;;;;;;;;;5069195;28;20222;-77
2020/12/26 11:55:24;;;;;;;4.45;2.05;;;;;;;;;;5070887;28;20251;-79
2020/12/26 11:57:50;;;;;;;3.30;2.10;;;;;;;;;;5071172;28;20194;-79
2020/12/26 12:00:18;;;;;;;3.15;2.45;;;;;;;;;;5070630;28;20271;-80
2020/12/26 12:02:45;;;;;;;3.28;2.22;;;;;;;;;;5065447;28;20192;-79
2020/12/26 12:05:12;;;;;;;4.07;2.15;;;;;;;;;;5066007;28;20187;-78
2020/12/26 12:07:38;;;;;;;5.03;2.70;;;;;;;;;;5068533;28;20197;-77
2020/12/26 12:10:05;;;;;;;4.03;1.90;;;;;;;;;;5068370;28;20198;-77
2020/12/26 12:12:32;;;;;;;3.17;2.58;;;;;;;;;;5068841;28;20667;-76
2020/12/26 12:14:59;;;;;;;2.30;1.90;;;;;;;;;;5071074;28;20595;-79
2020/12/26 12:17:26;;;;;;;1.90;1.80;;;;;;;;;;5074201;28;20255;-77
2020/12/26 12:19:53;;;;;;;5.00;2.75;;;;;;;;;;5073903;28;20267;-78
2020/12/26 12:22:20;;;;;;;4.88;2.50;;;;;;;;;;5074228;28;20198;-77
2020/12/26 12:24:47;;;;;;;5.45;2.55;;;;;;;;;;5068570;28;20246;-79
2020/12/26 12:27:13;;;;;;;6.28;2.25;;;;;;;;;;5069292;28;20281;-77
2020/12/26 12:29:40;;;;;;;7.20;2.90;;;;;;;;;;5071798;28;20195;-78
2020/12/26 12:32:07;;;;;;;3.17;2.05;;;;;;;;;;5071827;28;20200;-77
2020/12/26 12:34:34;;;;;;;2.00;1.80;;;;;;;;;;5071708;28;20224;-77
2020/12/26 12:37:01;;;;;;;2.20;1.75;;;;;;;;;;5072900;28;20198;-79
2020/12/26 12:39:28;;;;;;;3.78;2.03;;;;;;;;;;5073853;28;20285;-78
2020/12/26 12:41:55;;;;;;;2.97;1.83;;;;;;;;;;5068318;28;20218;-79
2020/12/26 12:44:22;;;;;;;3.42;2.17;;;;;;;;;;5064012;28;20205;-79
2020/12/26 12:46:49;;;;;;;3.15;1.67;;;;;;;;;;5066430;28;20243;-78
2020/12/26 12:49:15;;;;;;;2.10;1.70;;;;;;;;;;5067912;28;20293;-79
2020/12/26 12:51:43;;;;;;;2.30;1.30;;;;;;;;;;5067996;28;20716;-79
2020/12/26 12:54:10;;;;;;;2.40;1.88;;;;;;;;;;5067315;28;20213;-78
2020/12/26 12:56:37;;;;;;;5.45;1.65;;;;;;;;;;5069637;28;20597;-77
2020/12/26 12:59:04;;;;;;;1.75;1.30;;;;;;;;;;5069339;28;20663;-79
2020/12/26 13:01:30;;;;;;;2.33;1.30;;;;;;;;;;5069411;28;20232;-79
2020/12/26 13:03:57;;;;;;;4.20;1.65;;;;;;;;;;5068081;28;20206;-76
2020/12/26 13:06:26;;;;;;;2.70;1.38;;;;;;;;;;5063882;28;20212;-76
2020/12/26 13:08:54;;;;;;;2.17;1.08;;;;;;;;;;5066936;28;20201;-76
2020/12/26 13:11:21;;;;;;;6.50;1.50;;;;;;;;;;5067579;28;20200;-78
2020/12/26 13:13:48;;;;;;;1.92;1.20;;;;;;;;;;5067423;28;20290;-79
2020/12/26 13:16:20;;;;;;;3.85;1.30;;;;;;;;;;5059058;28;20555;-78
2020/12/26 13:18:47;;;;;;;1.30;1.20;;;;;;;;;;5058763;28;20214;-80
2020/12/26 13:21:16;;;;;;;1.65;1.25;;;;;;;;;;5064182;28;20214;-80
2020/12/26 13:23:43;;;;;;;2.78;1.25;;;;;;;;;;5067287;28;20222;-79
2020/12/26 13:26:11;;;;;;;1.88;1.50;;;;;;;;;;5067211;28;20329;-79
2020/12/26 13:28:38;;;;;;;2.70;1.67;;;;;;;;;;5067465;28;20651;-78
2020/12/26 13:31:05;;;;;;;2.80;1.50;;;;;;;;;;5068236;28;20571;-81
2020/12/26 13:33:31;;;;;;;2.83;2.15;;;;;;;;;;5071179;28;20225;-77
2020/12/26 13:35:58;;;;;;;2.78;1.55;;;;;;;;;;5072301;28;20207;-78
2020/12/26 13:38:25;;;;;;;2.53;2.00;;;;;;;;;;5072674;28;20226;-78
2020/12/26 13:40:52;;;;;;;2.58;1.95;;;;;;;;;;5069364;28;20629;-79
2020/12/26 13:43:20;;;;;;;2.10;1.80;;;;;;;;;;5059260;28;20582;-78
2020/12/26 13:45:46;;;;;;;3.42;1.90;;;;;;;;;;5050199;28;20256;-78
2020/12/26 13:48:13;;;;;;;5.40;1.80;;;;;;;;;;5058225;28;20331;-77
2020/12/26 13:50:40;;;;;;;1.50;1.30;;;;;;;;;;5069832;28;20636;-78
2020/12/26 13:53:07;;;;;;;3.60;1.77;;;;;;;;;;5062428;28;20219;-76
2020/12/26 13:55:34;;;;;;;2.83;1.83;;;;;;;;;;5065187;28;20206;-77
2020/12/26 13:58:00;;;;;;;2.92;1.50;;;;;;;;;;5064159;28;20198;-78
2020/12/26 14:00:28;;;;;;;2.40;1.55;;;;;;;;;;5070112;28;20597;-76
2020/12/26 14:02:55;;;;;;;3.20;2.08;;;;;;;;;;5053576;28;20300;-78
2020/12/26 14:05:22;;;;;;;4.30;1.95;;;;;;;;;;5064456;28;20195;-78
2020/12/26 14:07:48;;;;;;;3.13;2.28;;;;;;;;;;5062558;28;20282;-77
2020/12/26 14:10:15;;;;;;;4.20;2.10;;;;;;;;;;5071575;28;20533;-76
2020/12/26 14:12:42;;;;;;;3.83;1.90;;;;;;;;;;5070941;28;20212;-78
2020/12/26 14:15:09;;;;;;;2.63;1.98;;;;;;;;;;5070210;28;20243;-77
2020/12/26 14:17:44;;;;;;;1.92;1.63;;;;;;;;;;5066254;28;20196;-77
2020/12/26 14:20:11;;;;;;;3.45;1.90;;;;;;;;;;5068956;28;20219;-78
2020/12/26 14:22:38;;;;;;;3.20;1.65;;;;;;;;;;5069217;28;20200;-77
2020/12/26 14:25:06;;;;;;;1.52;1.42;;;;;;;;;;5064982;28;20231;-77
2020/12/26 14:27:33;;;;;;;2.30;1.80;;;;;;;;;;5058591;28;20666;-77
2020/12/26 14:30:00;;;;;;;2.58;1.83;;;;;;;;;;5066648;28;20194;-77
2020/12/26 14:32:26;;;;;;;2.67;1.58;;;;;;;;;;5071461;28;20277;-77